Time,TemperatureF,DewpointF,PressureIn,WindDirection,WindDirectionDegrees,WindSpeedMPH,WindSpeedGustMPH,Humidity,HourlyPrecipIn,Conditions,Clouds,dailyrainin,SoftwareType,DateUTC
2013-11-01 00:00:00,48.9,33.9,29.67,NNW,341,7.0,7.0,56,0.00,,,0.00,Wunderground v.1.13,2013-11-01 06:00:00,
2013-11-01 00:05:00,48.9,34.3,29.67,WNW,302,6.0,14.0,57,0.00,,,0.00,Wunderground v.1.13,2013-11-01 06:05:00,
2013-11-01 00:10:00,49.1,35.8,29.67,NNW,333,9.0,14.0,60,0.00,,,0.00,Wunderground v.1.13,2013-11-01 06:10:00,
2013-11-01 00:15:00,48.3,36.7,29.67,NNW,328,10.0,10.0,64,0.00,,,0.00,Wunderground v.1.13,2013-11-01 06:15:00,
2013-11-01 00:25:00,46.8,36.4,29.66,NW,311,2.0,2.0,67,0.00,,,0.00,Wunderground v.1.13,2013-11-01 06:25:00,
2013-11-01 00:30:00,46.2,35.8,29.66,WNW,297,0.0,14.0,67,0.00,,,0.00,Wunderground v.1.13,2013-11-01 06:30:00,
2013-11-01 00:35:00,45.8,35.8,29.67,NNW,329,0.0,14.0,68,0.00,,,0.00,Wunderground v.1.13,2013-11-01 06:35:00,
2013-11-01 00:40:00,45.4,35.8,29.67,WNW,292,0.0,14.0,69,0.00,,,0.00,Wunderground v.1.13,2013-11-01 06:40:00,
2013-11-01 00:45:00,45.5,35.2,29.67,NW,312,0.0,14.0,67,0.00,,,0.00,Wunderground v.1.13,2013-11-01 06:45:00,
2013-11-01 00:55:00,47.0,35.0,29.68,WNW,302,3.0,14.0,63,0.00,,,0.00,Wunderground v.1.13,2013-11-01 06:55:00,
2013-11-01 01:00:00,47.3,34.9,29.68,NW,311,8.0,8.0,62,0.00,,,0.00,Wunderground v.1.13,2013-11-01 07:00:00,
2013-11-01 01:05:00,47.4,35.0,29.68,WNW,303,9.0,9.0,62,0.00,,,0.00,Wunderground v.1.13,2013-11-01 07:05:00,
2013-11-01 01:10:00,47.7,34.9,29.68,WNW,296,9.0,14.0,61,0.00,,,0.00,Wunderground v.1.13,2013-11-01 07:10:00,
2013-11-01 01:15:00,47.9,34.7,29.68,West,280,9.0,14.0,60,0.00,,,0.00,Wunderground v.1.13,2013-11-01 07:15:00,
2013-11-01 01:20:00,47.9,34.7,29.68,West,273,9.0,14.0,60,0.00,,,0.00,Wunderground v.1.13,2013-11-01 07:20:00,
2013-11-01 01:25:00,47.9,35.1,29.68,WNW,285,8.0,8.0,61,0.00,,,0.00,Wunderground v.1.13,2013-11-01 07:25:00,
2013-11-01 01:30:00,47.9,35.1,29.68,NW,319,8.0,14.0,61,0.00,,,0.00,Wunderground v.1.13,2013-11-01 07:30:00,
2013-11-01 01:35:00,47.9,35.5,29.68,NNW,327,10.0,14.0,62,0.00,,,0.00,Wunderground v.1.13,2013-11-01 07:35:00,
2013-11-01 01:40:00,47.9,35.5,29.68,NW,326,12.0,14.0,62,0.00,,,0.00,Wunderground v.1.13,2013-11-01 07:40:00,
2013-11-01 01:50:00,47.4,35.8,29.68,NW,306,12.0,17.0,64,0.00,,,0.00,Wunderground v.1.13,2013-11-01 07:50:00,
2013-11-01 01:55:00,47.3,36.1,29.68,NW,319,13.0,14.0,65,0.00,,,0.00,Wunderground v.1.13,2013-11-01 07:55:00,
2013-11-01 02:00:00,47.6,36.0,29.68,WNW,295,12.0,12.0,64,0.00,,,0.00,Wunderground v.1.13,2013-11-01 08:00:00,
2013-11-01 02:05:00,47.6,36.0,29.68,NW,304,11.0,15.0,64,0.00,,,0.00,Wunderground v.1.13,2013-11-01 08:05:00,
2013-11-01 02:10:00,47.7,35.7,29.68,NW,314,10.0,14.0,63,0.00,,,0.00,Wunderground v.1.13,2013-11-01 08:10:00,
2013-11-01 02:15:00,47.6,35.6,29.68,WNW,292,11.0,17.0,63,0.00,,,0.00,Wunderground v.1.13,2013-11-01 08:15:00,
2013-11-01 02:20:00,47.6,35.6,29.69,WNW,301,12.0,12.0,63,0.00,,,0.00,Wunderground v.1.13,2013-11-01 08:20:00,
2013-11-01 02:25:00,47.6,35.6,29.69,NW,323,13.0,17.0,63,0.00,,,0.00,Wunderground v.1.13,2013-11-01 08:25:00,
2013-11-01 02:30:00,47.4,35.8,29.69,WNW,292,12.0,14.0,64,0.00,,,0.00,Wunderground v.1.13,2013-11-01 08:30:00,
2013-11-01 02:35:00,47.1,35.5,29.69,WNW,291,11.0,11.0,64,0.00,,,0.00,Wunderground v.1.13,2013-11-01 08:35:00,
2013-11-01 02:40:00,46.8,35.6,29.69,NW,314,11.0,16.0,65,0.00,,,0.00,Wunderground v.1.13,2013-11-01 08:40:00,
2013-11-01 02:45:00,46.5,36.1,29.69,WNW,294,10.0,10.0,67,0.00,,,0.00,Wunderground v.1.13,2013-11-01 08:45:00,
2013-11-01 02:50:00,46.1,35.7,29.70,West,267,10.0,10.0,67,0.00,,,0.00,Wunderground v.1.13,2013-11-01 08:50:00,
2013-11-01 02:55:00,45.8,35.8,29.70,West,265,9.0,14.0,68,0.00,,,0.00,Wunderground v.1.13,2013-11-01 08:55:00,
2013-11-01 03:00:00,45.4,35.8,29.70,WNW,290,7.0,14.0,69,0.00,,,0.00,Wunderground v.1.13,2013-11-01 09:00:00,
2013-11-01 03:05:00,45.1,35.9,29.71,WNW,288,6.0,6.0,70,0.00,,,0.00,Wunderground v.1.13,2013-11-01 09:05:00,
2013-11-01 03:10:00,44.6,35.4,29.71,WNW,284,4.0,4.0,70,0.00,,,0.00,Wunderground v.1.13,2013-11-01 09:10:00,
2013-11-01 03:15:00,44.5,35.3,29.71,West,267,1.0,1.0,70,0.00,,,0.00,Wunderground v.1.13,2013-11-01 09:15:00,
2013-11-01 03:20:00,44.2,35.0,29.71,WNW,290,2.0,14.0,70,0.00,,,0.00,Wunderground v.1.13,2013-11-01 09:20:00,
2013-11-01 03:25:00,44.1,34.9,29.71,West,277,3.0,14.0,70,0.00,,,0.00,Wunderground v.1.13,2013-11-01 09:25:00,
2013-11-01 03:35:00,43.9,34.7,29.72,NW,306,4.0,4.0,70,0.00,,,0.00,Wunderground v.1.13,2013-11-01 09:35:00,
2013-11-01 03:40:00,44.1,34.6,29.72,WNW,298,5.0,5.0,69,0.00,,,0.00,Wunderground v.1.13,2013-11-01 09:40:00,
2013-11-01 03:45:00,44.5,34.2,29.72,NW,307,7.0,14.0,67,0.00,,,0.00,Wunderground v.1.13,2013-11-01 09:45:00,
2013-11-01 03:50:00,44.9,33.8,29.72,WNW,290,8.0,8.0,65,0.00,,,0.00,Wunderground v.1.13,2013-11-01 09:50:00,
2013-11-01 03:55:00,45.2,33.7,29.72,NW,325,10.0,14.0,64,0.00,,,0.00,Wunderground v.1.13,2013-11-01 09:55:00,
2013-11-01 04:00:00,45.1,33.6,29.72,WNW,300,9.0,9.0,64,0.00,,,0.00,Wunderground v.1.13,2013-11-01 10:00:00,
2013-11-01 04:05:00,45.1,33.6,29.72,NNW,338,7.0,7.0,64,0.00,,,0.00,Wunderground v.1.13,2013-11-01 10:05:00,
2013-11-01 04:10:00,45.1,33.6,29.72,NW,323,6.0,14.0,64,0.00,,,0.00,Wunderground v.1.13,2013-11-01 10:10:00,
2013-11-01 04:15:00,45.1,33.2,29.72,NW,323,8.0,14.0,63,0.00,,,0.00,Wunderground v.1.13,2013-11-01 10:15:00,
2013-11-01 04:20:00,45.1,33.2,29.73,WNW,300,9.0,15.0,63,0.00,,,0.00,Wunderground v.1.13,2013-11-01 10:20:00,
2013-11-01 04:25:00,45.1,33.2,29.73,NW,304,9.0,14.0,63,0.00,,,0.00,Wunderground v.1.13,2013-11-01 10:25:00,
2013-11-01 04:30:00,44.8,33.4,29.73,NW,321,9.0,15.0,64,0.00,,,0.00,Wunderground v.1.13,2013-11-01 10:30:00,
2013-11-01 04:35:00,44.6,33.2,29.74,West,273,10.0,14.0,64,0.00,,,0.00,Wunderground v.1.13,2013-11-01 10:35:00,
2013-11-01 04:40:00,44.3,32.9,29.74,NW,318,10.0,16.0,64,0.00,,,0.00,Wunderground v.1.13,2013-11-01 10:40:00,
2013-11-01 04:45:00,44.1,33.1,29.74,NW,322,8.0,15.0,65,0.00,,,0.00,Wunderground v.1.13,2013-11-01 10:45:00,
2013-11-01 04:50:00,43.8,32.8,29.74,NNW,340,8.0,14.0,65,0.00,,,0.00,Wunderground v.1.13,2013-11-01 10:50:00,
2013-11-01 04:55:00,43.6,33.0,29.74,WNW,297,11.0,11.0,66,0.00,,,0.00,Wunderground v.1.13,2013-11-01 10:55:00,
2013-11-01 05:00:00,43.5,33.3,29.74,NNW,333,11.0,11.0,67,0.00,,,0.00,Wunderground v.1.13,2013-11-01 11:00:00,
2013-11-01 05:05:00,43.2,33.0,29.74,NNW,331,9.0,9.0,67,0.00,,,0.00,Wunderground v.1.13,2013-11-01 11:05:00,
2013-11-01 05:10:00,42.9,32.7,29.74,North,350,10.0,10.0,67,0.00,,,0.00,Wunderground v.1.13,2013-11-01 11:10:00,
2013-11-01 05:15:00,42.6,32.4,29.74,NNW,339,11.0,14.0,67,0.00,,,0.00,Wunderground v.1.13,2013-11-01 11:15:00,
2013-11-01 05:20:00,42.5,32.7,29.75,NNW,336,10.0,10.0,68,0.00,,,0.00,Wunderground v.1.13,2013-11-01 11:20:00,
2013-11-01 05:25:00,42.2,32.4,29.75,NNW,346,7.0,14.0,68,0.00,,,0.00,Wunderground v.1.13,2013-11-01 11:25:00,
2013-11-01 05:30:00,41.9,32.5,29.75,NNW,344,6.0,14.0,69,0.00,,,0.00,Wunderground v.1.13,2013-11-01 11:30:00,
2013-11-01 05:35:00,41.6,32.5,29.77,NNW,327,7.0,14.0,70,0.00,,,0.00,Wunderground v.1.13,2013-11-01 11:35:00,
2013-11-01 05:40:00,41.3,32.6,29.77,WNW,295,6.0,15.0,71,0.00,,,0.00,Wunderground v.1.13,2013-11-01 11:40:00,
2013-11-01 05:45:00,41.1,32.4,29.77,NW,317,6.0,6.0,71,0.00,,,0.00,Wunderground v.1.13,2013-11-01 11:45:00,
2013-11-01 05:50:00,40.6,32.3,29.77,NNW,334,6.0,14.0,72,0.00,,,0.00,Wunderground v.1.13,2013-11-01 11:50:00,
2013-11-01 05:55:00,40.3,32.0,29.77,North,349,4.0,14.0,72,0.00,,,0.00,Wunderground v.1.13,2013-11-01 11:55:00,
2013-11-01 06:00:00,39.9,31.9,29.77,NNW,340,3.0,3.0,73,0.00,,,0.00,Wunderground v.1.13,2013-11-01 12:00:00,
2013-11-01 06:05:00,39.6,31.7,29.78,NNW,336,1.0,1.0,73,0.00,,,0.00,Wunderground v.1.13,2013-11-01 12:05:00,
2013-11-01 06:10:00,39.3,31.7,29.78,WNW,288,0.0,14.0,74,0.00,,,0.00,Wunderground v.1.13,2013-11-01 12:10:00,
2013-11-01 06:15:00,39.1,31.5,29.78,NW,322,0.0,14.0,74,0.00,,,0.00,Wunderground v.1.13,2013-11-01 12:15:00,
2013-11-01 06:20:00,38.9,31.6,29.79,WNW,290,0.0,14.0,75,0.00,,,0.00,Wunderground v.1.13,2013-11-01 12:20:00,
2013-11-01 06:25:00,38.9,31.6,29.79,NNW,327,0.0,14.0,75,0.00,,,0.00,Wunderground v.1.13,2013-11-01 12:25:00,
2013-11-01 06:30:00,38.9,31.6,29.79,NNW,327,0.0,14.0,75,0.00,,,0.00,Wunderground v.1.13,2013-11-01 12:30:00,
2013-11-01 06:35:00,38.9,31.6,29.80,NW,308,0.0,14.0,75,0.00,,,0.00,Wunderground v.1.13,2013-11-01 12:35:00,
2013-11-01 06:40:00,38.9,31.3,29.80,NW,309,0.0,14.0,74,0.00,,,0.00,Wunderground v.1.13,2013-11-01 12:40:00,
2013-11-01 06:45:00,38.9,31.3,29.80,NW,312,0.0,14.0,74,0.00,,,0.00,Wunderground v.1.13,2013-11-01 12:45:00,
2013-11-01 06:50:00,38.8,31.6,29.81,NW,314,0.0,14.0,75,0.00,,,0.00,Wunderground v.1.13,2013-11-01 12:50:00,
2013-11-01 06:55:00,38.6,31.4,29.81,NW,317,0.0,14.0,75,0.00,,,0.00,Wunderground v.1.13,2013-11-01 12:55:00,
2013-11-01 07:00:00,38.5,31.3,29.81,NNW,327,0.0,14.0,75,0.00,,,0.00,Wunderground v.1.13,2013-11-01 13:00:00,
2013-11-01 07:05:00,38.5,31.3,29.82,WNW,291,0.0,14.0,75,0.00,,,0.00,Wunderground v.1.13,2013-11-01 13:05:00,
2013-11-01 07:10:00,38.3,31.1,29.82,WNW,291,0.0,14.0,75,0.00,,,0.00,Wunderground v.1.13,2013-11-01 13:10:00,
2013-11-01 07:15:00,37.9,30.7,29.82,WNW,291,0.0,14.0,75,0.00,,,0.00,Wunderground v.1.13,2013-11-01 13:15:00,
2013-11-01 07:20:00,37.6,30.7,29.84,WNW,291,0.0,14.0,76,0.00,,,0.00,Wunderground v.1.13,2013-11-01 13:20:00,
2013-11-01 07:25:00,37.5,30.6,29.84,WNW,291,0.0,14.0,76,0.00,,,0.00,Wunderground v.1.13,2013-11-01 13:25:00,
2013-11-01 07:30:00,37.3,30.4,29.84,WNW,291,0.0,14.0,76,0.00,,,0.00,Wunderground v.1.13,2013-11-01 13:30:00,
2013-11-01 07:35:00,37.5,30.9,29.84,WNW,291,0.0,14.0,77,0.00,,,0.00,Wunderground v.1.13,2013-11-01 13:35:00,
2013-11-01 07:40:00,37.3,30.4,29.84,SW,231,0.0,14.0,76,0.00,,,0.00,Wunderground v.1.13,2013-11-01 13:40:00,
2013-11-01 07:45:00,37.0,30.5,29.84,SW,231,0.0,14.0,77,0.00,,,0.00,Wunderground v.1.13,2013-11-01 13:45:00,
2013-11-01 07:50:00,36.8,30.3,29.84,SW,231,0.0,14.0,77,0.00,,,0.00,Wunderground v.1.13,2013-11-01 13:50:00,
2013-11-01 07:55:00,36.8,30.6,29.84,SW,231,0.0,14.0,78,0.00,,,0.00,Wunderground v.1.13,2013-11-01 13:55:00,
2013-11-01 08:00:00,36.9,30.4,29.84,WSW,238,0.0,14.0,77,0.00,,,0.00,Wunderground v.1.13,2013-11-01 14:00:00,
2013-11-01 08:05:00,37.2,30.7,29.86,WSW,238,0.0,14.0,77,0.00,,,0.00,Wunderground v.1.13,2013-11-01 14:05:00,
2013-11-01 08:10:00,37.5,30.9,29.86,WSW,240,0.0,14.0,77,0.00,,,0.00,Wunderground v.1.13,2013-11-01 14:10:00,
2013-11-01 08:15:00,37.9,31.0,29.86,West,281,0.0,14.0,76,0.00,,,0.00,Wunderground v.1.13,2013-11-01 14:15:00,
2013-11-01 08:20:00,38.9,31.6,29.87,NW,309,1.0,14.0,75,0.00,,,0.00,Wunderground v.1.13,2013-11-01 14:20:00,
2013-11-01 08:25:00,40.2,32.2,29.87,NW,324,2.0,2.0,73,0.00,,,0.00,Wunderground v.1.13,2013-11-01 14:25:00,
2013-11-01 08:30:00,41.1,32.4,29.87,NW,305,2.0,14.0,71,0.00,,,0.00,Wunderground v.1.13,2013-11-01 14:30:00,
2013-11-01 08:35:00,41.6,32.5,29.88,NW,325,3.0,3.0,70,0.00,,,0.00,Wunderground v.1.13,2013-11-01 14:35:00,
2013-11-01 08:40:00,41.9,32.5,29.88,WNW,300,4.0,4.0,69,0.00,,,0.00,Wunderground v.1.13,2013-11-01 14:40:00,
2013-11-01 08:45:00,42.2,32.4,29.88,WNW,297,4.0,14.0,68,0.00,,,0.00,Wunderground v.1.13,2013-11-01 14:45:00,
2013-11-01 08:50:00,42.3,32.5,29.89,WNW,286,6.0,6.0,68,0.00,,,0.00,Wunderground v.1.13,2013-11-01 14:50:00,
2013-11-01 08:55:00,42.6,32.4,29.89,NW,311,6.0,6.0,67,0.00,,,0.00,Wunderground v.1.13,2013-11-01 14:55:00,
2013-11-01 09:00:00,43.1,32.9,29.89,NNW,327,3.0,3.0,67,0.00,,,0.00,Wunderground v.1.13,2013-11-01 15:00:00,
2013-11-01 09:05:00,43.5,32.9,29.87,NW,306,2.0,14.0,66,0.00,,,0.00,Wunderground v.1.13,2013-11-01 15:05:00,
2013-11-01 09:10:00,43.9,32.9,29.87,NNW,340,4.0,14.0,65,0.00,,,0.00,Wunderground v.1.13,2013-11-01 15:10:00,
2013-11-01 09:20:00,44.8,33.0,29.87,NW,322,8.0,14.0,63,0.00,,,0.00,Wunderground v.1.13,2013-11-01 15:20:00,
2013-11-01 09:25:00,45.2,33.3,29.87,NNW,336,8.0,8.0,63,0.00,,,0.00,Wunderground v.1.13,2013-11-01 15:25:00,
2013-11-01 09:30:00,45.7,33.4,29.87,NNW,327,7.0,7.0,62,0.00,,,0.00,Wunderground v.1.13,2013-11-01 15:30:00,
2013-11-01 09:35:00,46.0,33.7,29.88,WNW,302,9.0,14.0,62,0.00,,,0.00,Wunderground v.1.13,2013-11-01 15:35:00,
2013-11-01 09:40:00,46.2,33.5,29.88,North,351,10.0,10.0,61,0.00,,,0.00,Wunderground v.1.13,2013-11-01 15:40:00,
2013-11-01 09:45:00,46.7,33.5,29.88,NW,311,12.0,12.0,60,0.00,,,0.00,Wunderground v.1.13,2013-11-01 15:45:00,
2013-11-01 09:50:00,47.3,33.3,29.88,North,350,11.0,11.0,58,0.00,,,0.00,Wunderground v.1.13,2013-11-01 15:50:00,
2013-11-01 09:55:00,47.7,33.2,29.88,NNW,332,11.0,16.0,57,0.00,,,0.00,Wunderground v.1.13,2013-11-01 15:55:00,
2013-11-01 10:00:00,47.9,32.9,29.88,NW,304,13.0,13.0,56,0.00,,,0.00,Wunderground v.1.13,2013-11-01 16:00:00,
2013-11-01 10:04:00,48.5,32.6,29.87,North,351,12.0,17.0,54,0.00,,,0.00,Wunderground v.1.13,2013-11-01 16:04:00,
2013-11-01 10:10:00,48.8,32.4,29.87,NW,322,11.0,19.0,53,0.00,,,0.00,Wunderground v.1.13,2013-11-01 16:10:00,
2013-11-01 10:15:00,48.9,31.5,29.87,WNW,298,13.0,16.0,51,0.00,,,0.00,Wunderground v.1.13,2013-11-01 16:15:00,
2013-11-01 10:20:00,49.1,31.7,29.88,WNW,284,14.0,18.0,51,0.00,,,0.00,Wunderground v.1.13,2013-11-01 16:20:00,
2013-11-01 10:25:00,49.4,32.0,29.88,NW,322,13.0,22.0,51,0.00,,,0.00,Wunderground v.1.13,2013-11-01 16:25:00,
2013-11-01 10:30:00,49.5,31.6,29.88,NW,321,13.0,13.0,50,0.00,,,0.00,Wunderground v.1.13,2013-11-01 16:30:00,
2013-11-01 10:35:00,49.8,31.4,29.87,NNW,333,13.0,13.0,49,0.00,,,0.00,Wunderground v.1.13,2013-11-01 16:35:00,
2013-11-01 10:39:00,49.9,31.0,29.87,NNW,344,14.0,14.0,48,0.00,,,0.00,Wunderground v.1.13,2013-11-01 16:39:00,
2013-11-01 10:45:00,49.9,31.0,29.87,NNW,339,15.0,20.0,48,0.00,,,0.00,Wunderground v.1.13,2013-11-01 16:45:00,
2013-11-01 10:50:00,49.8,30.4,29.87,NW,305,18.0,18.0,47,0.00,,,0.00,Wunderground v.1.13,2013-11-01 16:50:00,
2013-11-01 10:55:00,50.4,30.4,29.87,NW,310,18.0,23.0,46,0.00,,,0.00,Wunderground v.1.13,2013-11-01 16:55:00,
2013-11-01 11:00:00,50.8,31.3,29.87,North,360,16.0,16.0,47,0.00,,,0.00,Wunderground v.1.13,2013-11-01 17:00:00,
2013-11-01 11:05:00,50.7,30.1,29.88,NW,318,17.0,17.0,45,0.00,,,0.00,Wunderground v.1.13,2013-11-01 17:05:00,
2013-11-01 11:10:00,50.5,29.9,29.88,NW,321,19.0,25.0,45,0.00,,,0.00,Wunderground v.1.13,2013-11-01 17:10:00,
2013-11-01 11:15:00,50.5,29.9,29.88,NNW,340,19.0,19.0,45,0.00,,,0.00,Wunderground v.1.13,2013-11-01 17:15:00,
2013-11-01 11:20:00,50.4,29.3,29.88,North,349,19.0,24.0,44,0.00,,,0.00,Wunderground v.1.13,2013-11-01 17:20:00,
2013-11-01 11:25:00,50.8,30.2,29.88,NNW,337,18.0,21.0,45,0.00,,,0.00,Wunderground v.1.13,2013-11-01 17:25:00,
2013-11-01 11:30:00,50.8,29.6,29.88,NNW,332,18.0,18.0,44,0.00,,,0.00,Wunderground v.1.13,2013-11-01 17:30:00,
2013-11-01 11:35:00,51.0,29.8,29.89,North,350,18.0,21.0,44,0.00,,,0.00,Wunderground v.1.13,2013-11-01 17:35:00,
2013-11-01 11:40:00,51.0,29.8,29.89,NNW,344,18.0,18.0,44,0.00,,,0.00,Wunderground v.1.13,2013-11-01 17:40:00,
2013-11-01 11:45:00,51.0,29.8,29.89,NNW,333,18.0,18.0,44,0.00,,,0.00,Wunderground v.1.13,2013-11-01 17:45:00,
2013-11-01 11:50:00,51.1,30.5,29.89,NNW,342,18.0,29.0,45,0.00,,,0.00,Wunderground v.1.13,2013-11-01 17:50:00,
2013-11-01 11:55:00,51.3,30.1,29.89,West,269,18.0,20.0,44,0.00,,,0.00,Wunderground v.1.13,2013-11-01 17:55:00,
2013-11-01 12:00:00,51.6,29.8,29.89,West,277,17.0,17.0,43,0.00,,,0.00,Wunderground v.1.13,2013-11-01 18:00:00,
2013-11-01 12:05:00,51.7,29.3,29.90,NW,320,17.0,17.0,42,0.00,,,0.00,Wunderground v.1.13,2013-11-01 18:05:00,
2013-11-01 12:10:00,51.9,28.9,29.90,WNW,285,17.0,17.0,41,0.00,,,0.00,Wunderground v.1.13,2013-11-01 18:10:00,
2013-11-01 12:15:00,52.3,29.3,29.90,NW,320,15.0,18.0,41,0.00,,,0.00,Wunderground v.1.13,2013-11-01 18:15:00,
2013-11-01 12:20:00,52.5,27.6,29.90,NNW,331,15.0,17.0,38,0.00,,,0.00,Wunderground v.1.13,2013-11-01 18:20:00,
2013-11-01 12:25:00,52.8,28.5,29.90,NW,326,16.0,17.0,39,0.00,,,0.00,Wunderground v.1.13,2013-11-01 18:25:00,
2013-11-01 12:35:00,53.6,23.7,29.89,WNW,302,16.0,16.0,31,0.00,,,0.00,Wunderground v.1.13,2013-11-01 18:35:00,
2013-11-01 12:40:00,53.8,25.3,29.89,NNW,336,15.0,15.0,33,0.00,,,0.00,Wunderground v.1.13,2013-11-01 18:40:00,
2013-11-01 12:45:00,53.6,24.4,29.89,NNW,335,15.0,18.0,32,0.00,,,0.00,Wunderground v.1.13,2013-11-01 18:45:00,
2013-11-01 12:50:00,53.9,23.9,29.89,North,351,18.0,20.0,31,0.00,,,0.00,Wunderground v.1.13,2013-11-01 18:50:00,
2013-11-01 12:55:00,53.8,22.2,29.89,North,360,19.0,19.0,29,0.00,,,0.00,Wunderground v.1.13,2013-11-01 18:55:00,
2013-11-01 13:00:00,54.1,24.9,29.89,NW,313,16.0,16.0,32,0.00,,,0.00,Wunderground v.1.13,2013-11-01 19:00:00,
2013-11-01 13:05:00,54.1,25.6,29.89,North,5,15.0,24.0,33,0.00,,,0.00,Wunderground v.1.13,2013-11-01 19:05:00,
2013-11-01 13:10:00,54.1,26.3,29.89,NNW,345,16.0,16.0,34,0.00,,,0.00,Wunderground v.1.13,2013-11-01 19:10:00,
2013-11-01 13:14:00,54.2,24.2,29.89,NW,313,15.0,15.0,31,0.00,,,0.00,Wunderground v.1.13,2013-11-01 19:14:00,
2013-11-01 13:20:00,54.1,24.9,29.90,NNW,342,15.0,15.0,32,0.00,,,0.00,Wunderground v.1.13,2013-11-01 19:20:00,
2013-11-01 13:24:00,54.2,24.2,29.90,NNW,346,15.0,15.0,31,0.00,,,0.00,Wunderground v.1.13,2013-11-01 19:24:00,
2013-11-01 13:30:00,54.4,23.6,29.90,WNW,300,14.0,14.0,30,0.00,,,0.00,Wunderground v.1.13,2013-11-01 19:30:00,
2013-11-01 13:35:00,54.4,25.1,29.89,NW,326,14.0,20.0,32,0.00,,,0.00,Wunderground v.1.13,2013-11-01 19:35:00,
2013-11-01 13:40:00,53.5,24.3,29.89,NNW,338,15.0,19.0,32,0.00,,,0.00,Wunderground v.1.13,2013-11-01 19:40:00,
2013-11-01 13:44:00,53.5,23.6,29.89,WNW,300,16.0,16.0,31,0.00,,,0.00,Wunderground v.1.13,2013-11-01 19:44:00,
2013-11-01 13:50:00,53.5,23.6,29.90,NW,321,14.0,14.0,31,0.00,,,0.00,Wunderground v.1.13,2013-11-01 19:50:00,
2013-11-01 13:55:00,53.5,24.3,29.90,NNW,338,14.0,17.0,32,0.00,,,0.00,Wunderground v.1.13,2013-11-01 19:55:00,
2013-11-01 14:00:00,53.2,24.1,29.90,NW,325,15.0,21.0,32,0.00,,,0.00,Wunderground v.1.13,2013-11-01 20:00:00,
2013-11-01 14:05:00,53.9,23.9,29.90,NW,320,15.0,15.0,31,0.00,,,0.00,Wunderground v.1.13,2013-11-01 20:05:00,
2013-11-01 14:10:00,53.2,23.3,29.90,NW,308,15.0,15.0,31,0.00,,,0.00,Wunderground v.1.13,2013-11-01 20:10:00,
2013-11-01 14:15:00,52.6,24.3,29.90,North,351,13.0,18.0,33,0.00,,,0.00,Wunderground v.1.13,2013-11-01 20:15:00,
2013-11-01 14:20:00,53.9,23.9,29.89,NNW,329,14.0,16.0,31,0.00,,,0.00,Wunderground v.1.13,2013-11-01 20:20:00,
2013-11-01 14:25:00,55.0,22.4,29.89,NW,313,15.0,15.0,28,0.00,,,0.00,Wunderground v.1.13,2013-11-01 20:25:00,
2013-11-01 14:30:00,55.0,22.4,29.89,North,351,16.0,16.0,28,0.00,,,0.00,Wunderground v.1.13,2013-11-01 20:30:00,
2013-11-01 14:35:00,55.0,22.4,29.90,NW,311,17.0,21.0,28,0.00,,,0.00,Wunderground v.1.13,2013-11-01 20:35:00,
2013-11-01 14:40:00,53.6,21.2,29.90,NNW,332,17.0,19.0,28,0.00,,,0.00,Wunderground v.1.13,2013-11-01 20:40:00,
2013-11-01 14:44:00,53.2,22.5,29.90,NNW,329,16.0,16.0,30,0.00,,,0.00,Wunderground v.1.13,2013-11-01 20:44:00,
2013-11-01 14:50:00,52.9,21.5,29.91,WNW,300,16.0,16.0,29,0.00,,,0.00,Wunderground v.1.13,2013-11-01 20:50:00,
2013-11-01 14:55:00,52.6,22.0,29.91,NNW,344,17.0,26.0,30,0.00,,,0.00,Wunderground v.1.13,2013-11-01 20:55:00,
2013-11-01 15:00:00,52.9,21.5,29.91,NW,304,17.0,17.0,29,0.00,,,0.00,Wunderground v.1.13,2013-11-01 21:00:00,
2013-11-01 15:05:00,54.2,21.8,29.91,NW,323,17.0,17.0,28,0.00,,,0.00,Wunderground v.1.13,2013-11-01 21:05:00,
2013-11-01 15:15:00,53.5,21.2,29.91,NNW,336,19.0,19.0,28,0.00,,,0.00,Wunderground v.1.13,2013-11-01 21:15:00,
2013-11-01 15:20:00,52.9,20.6,29.91,NNW,340,19.0,19.0,28,0.00,,,0.00,Wunderground v.1.13,2013-11-01 21:20:00,
2013-11-01 15:25:00,52.8,20.5,29.91,North,351,17.0,18.0,28,0.00,,,0.00,Wunderground v.1.13,2013-11-01 21:25:00,
2013-11-01 15:30:00,53.2,23.3,29.91,NW,312,17.0,19.0,31,0.00,,,0.00,Wunderground v.1.13,2013-11-01 21:30:00,
2013-11-01 15:35:00,53.3,21.0,29.91,NNW,338,18.0,18.0,28,0.00,,,0.00,Wunderground v.1.13,2013-11-01 21:35:00,
2013-11-01 15:40:00,53.8,20.6,29.91,NNE,15,18.0,20.0,27,0.00,,,0.00,Wunderground v.1.13,2013-11-01 21:40:00,
2013-11-01 15:45:00,53.1,20.0,29.91,NNW,346,19.0,19.0,27,0.00,,,0.00,Wunderground v.1.13,2013-11-01 21:45:00,
2013-11-01 15:50:00,53.1,20.8,29.93,North,351,20.0,21.0,28,0.00,,,0.00,Wunderground v.1.13,2013-11-01 21:50:00,
2013-11-01 15:55:00,52.6,20.4,29.93,NW,323,19.0,19.0,28,0.00,,,0.00,Wunderground v.1.13,2013-11-01 21:55:00,
2013-11-01 16:00:00,52.0,19.9,29.93,NNW,348,17.0,18.0,28,0.00,,,0.00,Wunderground v.1.13,2013-11-01 22:00:00,
2013-11-01 16:05:00,52.2,20.0,29.93,NNW,348,16.0,17.0,28,0.00,,,0.00,Wunderground v.1.13,2013-11-01 22:05:00,
2013-11-01 16:10:00,52.8,20.5,29.93,NNW,329,16.0,16.0,28,0.00,,,0.00,Wunderground v.1.13,2013-11-01 22:10:00,
2013-11-01 16:15:00,53.2,20.0,29.93,NNW,333,16.0,16.0,27,0.00,,,0.00,Wunderground v.1.13,2013-11-01 22:15:00,
2013-11-01 16:20:00,53.2,20.0,29.93,North,351,16.0,21.0,27,0.00,,,0.00,Wunderground v.1.13,2013-11-01 22:20:00,
2013-11-01 16:25:00,53.2,20.0,29.93,NW,319,16.0,16.0,27,0.00,,,0.00,Wunderground v.1.13,2013-11-01 22:25:00,
2013-11-01 16:30:00,53.1,20.0,29.93,NNW,335,16.0,30.0,27,0.00,,,0.00,Wunderground v.1.13,2013-11-01 22:30:00,
2013-11-01 16:35:00,52.8,20.5,29.94,WNW,293,17.0,17.0,28,0.00,,,0.00,Wunderground v.1.13,2013-11-01 22:35:00,
2013-11-01 16:40:00,52.6,20.4,29.94,North,351,17.0,21.0,28,0.00,,,0.00,Wunderground v.1.13,2013-11-01 22:40:00,
2013-11-01 16:45:00,52.5,19.4,29.94,NNW,345,18.0,18.0,27,0.00,,,0.00,Wunderground v.1.13,2013-11-01 22:45:00,
2013-11-01 16:49:00,52.5,19.4,29.94,NNW,340,19.0,22.0,27,0.00,,,0.00,Wunderground v.1.13,2013-11-01 22:49:00,
2013-11-01 16:55:00,52.0,19.9,29.94,NW,311,18.0,19.0,28,0.00,,,0.00,Wunderground v.1.13,2013-11-01 22:55:00,
2013-11-01 17:00:00,51.3,20.1,29.94,WNW,295,16.0,19.0,29,0.00,,,0.00,Wunderground v.1.13,2013-11-01 23:00:00,
2013-11-01 17:04:00,50.8,19.6,29.95,NNW,343,14.0,14.0,29,0.00,,,0.00,Wunderground v.1.13,2013-11-01 23:04:00,
2013-11-01 17:10:00,50.5,20.2,29.95,North,351,12.0,17.0,30,0.00,,,0.00,Wunderground v.1.13,2013-11-01 23:10:00,
2013-11-01 17:15:00,50.4,20.9,29.95,NW,319,13.0,17.0,31,0.00,,,0.00,Wunderground v.1.13,2013-11-01 23:15:00,
2013-11-01 17:20:00,50.2,19.9,29.96,NW,326,14.0,14.0,30,0.00,,,0.00,Wunderground v.1.13,2013-11-01 23:20:00,
2013-11-01 17:25:00,49.9,19.7,29.96,NNW,333,11.0,17.0,30,0.00,,,0.00,Wunderground v.1.13,2013-11-01 23:25:00,
2013-11-01 17:30:00,49.9,19.7,29.96,NNW,336,11.0,15.0,30,0.00,,,0.00,Wunderground v.1.13,2013-11-01 23:30:00,
2013-11-01 17:35:00,49.9,19.7,29.97,NNW,336,14.0,14.0,30,0.00,,,0.00,Wunderground v.1.13,2013-11-01 23:35:00,
2013-11-01 17:40:00,49.9,19.7,29.97,NW,316,14.0,14.0,30,0.00,,,0.00,Wunderground v.1.13,2013-11-01 23:40:00,
2013-11-01 17:45:00,50.1,19.8,29.97,NNW,332,15.0,18.0,30,0.00,,,0.00,Wunderground v.1.13,2013-11-01 23:45:00,
2013-11-01 17:50:00,49.9,19.7,29.97,NW,315,15.0,15.0,30,0.00,,,0.00,Wunderground v.1.13,2013-11-01 23:50:00,
2013-11-01 17:55:00,49.8,20.3,29.97,NNW,340,14.0,14.0,31,0.00,,,0.00,Wunderground v.1.13,2013-11-01 23:55:00,
2013-11-01 18:00:00,49.5,20.1,29.97,North,360,13.0,13.0,31,0.00,,,0.00,Wunderground v.1.13,2013-11-02 00:00:00,
2013-11-01 18:05:00,49.4,20.0,29.98,North,350,12.0,12.0,31,0.00,,,0.00,Wunderground v.1.13,2013-11-02 00:05:00,
2013-11-01 18:10:00,49.2,19.8,29.98,NW,317,11.0,11.0,31,0.00,,,0.00,Wunderground v.1.13,2013-11-02 00:10:00,
2013-11-01 18:15:00,48.9,19.5,29.98,NNW,336,12.0,14.0,31,0.00,,,0.00,Wunderground v.1.13,2013-11-02 00:15:00,
2013-11-01 18:20:00,49.1,19.0,29.98,NNW,340,12.0,14.0,30,0.00,,,0.00,Wunderground v.1.13,2013-11-02 00:20:00,
2013-11-01 18:25:00,49.2,19.8,29.98,NNW,329,12.0,14.0,31,0.00,,,0.00,Wunderground v.1.13,2013-11-02 00:25:00,
2013-11-01 18:30:00,48.9,19.5,29.98,NNW,329,11.0,11.0,31,0.00,,,0.00,Wunderground v.1.13,2013-11-02 00:30:00,
2013-11-01 18:35:00,48.8,20.2,29.99,NW,317,10.0,14.0,32,0.00,,,0.00,Wunderground v.1.13,2013-11-02 00:35:00,
2013-11-01 18:40:00,48.8,19.5,29.99,WNW,300,10.0,10.0,31,0.00,,,0.00,Wunderground v.1.13,2013-11-02 00:40:00,
2013-11-01 18:45:00,48.6,20.0,29.99,NNW,338,8.0,14.0,32,0.00,,,0.00,Wunderground v.1.13,2013-11-02 00:45:00,
2013-11-01 18:55:00,48.0,21.6,30.00,NW,308,8.0,8.0,35,0.00,,,0.00,Wunderground v.1.13,2013-11-02 00:55:00,
2013-11-01 19:00:00,47.1,21.5,30.00,NW,309,3.0,3.0,36,0.00,,,0.00,Wunderground v.1.13,2013-11-02 01:00:00,
2013-11-01 19:10:00,45.8,21.0,30.00,NW,307,2.0,2.0,37,0.00,,,0.00,Wunderground v.1.13,2013-11-02 01:10:00,
2013-11-01 19:15:00,45.7,20.9,30.00,NW,306,2.0,14.0,37,0.00,,,0.00,Wunderground v.1.13,2013-11-02 01:15:00,
2013-11-01 19:25:00,45.2,21.1,30.01,NNW,327,1.0,1.0,38,0.00,,,0.00,Wunderground v.1.13,2013-11-02 01:25:00,
2013-11-01 19:30:00,44.6,21.1,30.01,NW,319,0.0,14.0,39,0.00,,,0.00,Wunderground v.1.13,2013-11-02 01:30:00,
2013-11-01 19:35:00,44.2,21.4,30.02,NW,313,0.0,14.0,40,0.00,,,0.00,Wunderground v.1.13,2013-11-02 01:35:00,
2013-11-01 19:40:00,43.9,21.7,30.02,NW,320,0.0,14.0,41,0.00,,,0.00,Wunderground v.1.13,2013-11-02 01:40:00,
2013-11-01 19:45:00,43.5,21.9,30.02,NW,321,0.0,14.0,42,0.00,,,0.00,Wunderground v.1.13,2013-11-02 01:45:00,
2013-11-01 19:50:00,43.2,22.2,30.02,NW,321,0.0,14.0,43,0.00,,,0.00,Wunderground v.1.13,2013-11-02 01:50:00,
2013-11-01 19:55:00,42.8,22.4,30.02,NW,321,0.0,14.0,44,0.00,,,0.00,Wunderground v.1.13,2013-11-02 01:55:00,
2013-11-01 20:00:00,42.5,22.1,30.02,NW,321,0.0,14.0,44,0.00,,,0.00,Wunderground v.1.13,2013-11-02 02:00:00,
2013-11-01 20:05:00,42.1,22.3,30.02,NW,321,0.0,14.0,45,0.00,,,0.00,Wunderground v.1.13,2013-11-02 02:05:00,
2013-11-01 20:10:00,41.6,22.3,30.02,NW,321,0.0,14.0,46,0.00,,,0.00,Wunderground v.1.13,2013-11-02 02:10:00,
2013-11-01 20:15:00,41.2,22.5,30.02,NW,321,0.0,14.0,47,0.00,,,0.00,Wunderground v.1.13,2013-11-02 02:15:00,
2013-11-01 20:20:00,40.8,22.1,30.03,NW,321,0.0,14.0,47,0.00,,,0.00,Wunderground v.1.13,2013-11-02 02:20:00,
2013-11-01 20:25:00,40.3,22.1,30.03,NW,321,0.0,14.0,48,0.00,,,0.00,Wunderground v.1.13,2013-11-02 02:25:00,
2013-11-01 20:30:00,40.1,22.4,30.03,NW,321,0.0,14.0,49,0.00,,,0.00,Wunderground v.1.13,2013-11-02 02:30:00,
2013-11-01 20:35:00,40.1,22.4,30.04,NW,321,0.0,14.0,49,0.00,,,0.00,Wunderground v.1.13,2013-11-02 02:35:00,
2013-11-01 20:40:00,39.8,22.7,30.04,NW,321,0.0,14.0,50,0.00,,,0.00,Wunderground v.1.13,2013-11-02 02:40:00,
2013-11-01 20:45:00,39.2,22.1,30.04,NW,321,0.0,14.0,50,0.00,,,0.00,Wunderground v.1.13,2013-11-02 02:45:00,
2013-11-01 20:49:00,38.2,21.6,30.04,NW,321,0.0,14.0,51,0.00,,,0.00,Wunderground v.1.13,2013-11-02 02:49:00,
2013-11-01 20:54:00,37.5,21.9,30.04,NW,321,0.0,14.0,53,0.00,,,0.00,Wunderground v.1.13,2013-11-02 02:54:00,
2013-11-01 21:00:00,36.9,21.8,30.04,NW,321,0.0,14.0,54,0.00,,,0.00,Wunderground v.1.13,2013-11-02 03:00:00,
2013-11-01 21:05:00,36.3,21.7,30.05,NW,321,0.0,14.0,55,0.00,,,0.00,Wunderground v.1.13,2013-11-02 03:05:00,
2013-11-01 21:10:00,35.9,22.1,30.05,NW,321,0.0,14.0,57,0.00,,,0.00,Wunderground v.1.13,2013-11-02 03:10:00,
2013-11-01 21:15:00,35.6,21.9,30.05,NW,321,0.0,14.0,57,0.00,,,0.00,Wunderground v.1.13,2013-11-02 03:15:00,
2013-11-01 21:25:00,33.8,21.0,30.05,NW,321,0.0,14.0,59,0.00,,,0.00,Wunderground v.1.13,2013-11-02 03:25:00,
2013-11-01 21:30:00,33.1,20.7,30.05,NW,321,0.0,14.0,60,0.00,,,0.00,Wunderground v.1.13,2013-11-02 03:30:00,
2013-11-01 21:35:00,32.8,20.8,30.06,NW,321,0.0,14.0,61,0.00,,,0.00,Wunderground v.1.13,2013-11-02 03:35:00,
2013-11-01 21:40:00,32.7,21.1,30.06,NW,321,0.0,14.0,62,0.00,,,0.00,Wunderground v.1.13,2013-11-02 03:40:00,
2013-11-01 21:45:00,32.5,20.9,30.06,NW,321,0.0,14.0,62,0.00,,,0.00,Wunderground v.1.13,2013-11-02 03:45:00,
2013-11-01 21:50:00,32.1,20.5,30.06,NW,321,0.0,14.0,62,0.00,,,0.00,Wunderground v.1.13,2013-11-02 03:50:00,
2013-11-01 21:55:00,31.6,20.4,30.06,NW,321,0.0,14.0,63,0.00,,,0.00,Wunderground v.1.13,2013-11-02 03:55:00,
2013-11-01 22:00:00,31.3,20.5,30.06,NW,321,0.0,14.0,64,0.00,,,0.00,Wunderground v.1.13,2013-11-02 04:00:00,
2013-11-01 22:04:00,31.2,20.8,30.06,NW,321,0.0,14.0,65,0.00,,,0.00,Wunderground v.1.13,2013-11-02 04:04:00,
2013-11-01 22:10:00,30.9,20.5,30.06,NW,321,0.0,14.0,65,0.00,,,0.00,Wunderground v.1.13,2013-11-02 04:10:00,
2013-11-01 22:15:00,30.7,20.7,30.06,NW,321,0.0,14.0,66,0.00,,,0.00,Wunderground v.1.13,2013-11-02 04:15:00,
2013-11-01 22:20:00,30.7,20.7,30.06,NW,321,0.0,14.0,66,0.00,,,0.00,Wunderground v.1.13,2013-11-02 04:20:00,
2013-11-01 22:25:00,30.6,20.9,30.06,NW,321,0.0,14.0,67,0.00,,,0.00,Wunderground v.1.13,2013-11-02 04:25:00,
2013-11-01 22:30:00,30.1,20.1,30.06,NW,321,0.0,14.0,66,0.00,,,0.00,Wunderground v.1.13,2013-11-02 04:30:00,
2013-11-01 22:35:00,29.7,20.1,30.07,NW,321,0.0,14.0,67,0.00,,,0.00,Wunderground v.1.13,2013-11-02 04:35:00,
2013-11-01 22:40:00,29.4,20.1,30.07,NW,321,0.0,14.0,68,0.00,,,0.00,Wunderground v.1.13,2013-11-02 04:40:00,
2013-11-01 22:50:00,29.1,20.2,30.07,NW,321,0.0,14.0,69,0.00,,,0.00,Wunderground v.1.13,2013-11-02 04:50:00,
2013-11-01 22:55:00,29.1,20.2,30.07,NW,321,0.0,14.0,69,0.00,,,0.00,Wunderground v.1.13,2013-11-02 04:55:00,
2013-11-01 23:00:00,29.8,20.5,30.07,NW,321,0.0,14.0,68,0.00,,,0.00,Wunderground v.1.13,2013-11-02 05:00:00,
2013-11-01 23:05:00,30.3,20.6,30.07,NW,321,0.0,14.0,67,0.00,,,0.00,Wunderground v.1.13,2013-11-02 05:05:00,
2013-11-01 23:15:00,30.4,20.4,30.07,NW,321,0.0,14.0,66,0.00,,,0.00,Wunderground v.1.13,2013-11-02 05:15:00,
2013-11-01 23:20:00,30.4,20.4,30.07,NW,321,0.0,14.0,66,0.00,,,0.00,Wunderground v.1.13,2013-11-02 05:20:00,
2013-11-01 23:25:00,30.1,20.1,30.07,NW,321,0.0,14.0,66,0.00,,,0.00,Wunderground v.1.13,2013-11-02 05:25:00,
2013-11-01 23:30:00,29.8,20.2,30.07,NW,321,0.0,14.0,67,0.00,,,0.00,Wunderground v.1.13,2013-11-02 05:30:00,
2013-11-01 23:35:00,29.5,19.9,30.07,NW,321,0.0,14.0,67,0.00,,,0.00,Wunderground v.1.13,2013-11-02 05:35:00,
2013-11-01 23:40:00,29.4,20.1,30.07,NW,321,0.0,14.0,68,0.00,,,0.00,Wunderground v.1.13,2013-11-02 05:40:00,
2013-11-01 23:45:00,29.3,20.0,30.07,NW,321,0.0,14.0,68,0.00,,,0.00,Wunderground v.1.13,2013-11-02 05:45:00,
2013-11-01 23:50:00,29.1,19.8,30.08,NW,321,0.0,14.0,68,0.00,,,0.00,Wunderground v.1.13,2013-11-02 05:50:00,
2013-11-01 23:55:00,29.0,20.1,30.08,NW,321,0.0,14.0,69,0.00,,,0.00,Wunderground v.1.13,2013-11-02 05:55:00,